Time;durP1;ratioP1;P1;durP2;ratioP2;P2;SDS_P1;SDS_P2;PMS_P1;PMS_P2;Temp;Humidity;BMP_temperature;BMP_pressure;BME280_temperature;BME280_humidity;BME280_pressure;Samples;Min_cycle;Max_cycle;Signal;HPM_P1;HPM_P2
2022/06/13 00:00:49;;;;;;;9.52;3.92;;;;;;;10.26;100.00;102104.13;5211618;28;20060;-69
2022/06/13 00:03:20;;;;;;;14.38;5.00;;;;;;;10.22;100.00;102100.81;5215987;28;20028;-69
2022/06/13 00:05:51;;;;;;;13.23;4.93;;;;;;;10.20;100.00;102096.56;5210690;28;20472;-69
2022/06/13 00:08:21;;;;;;;11.48;4.75;;;;;;;10.18;100.00;102104.72;5212203;28;20035;-70
2022/06/13 00:10:52;;;;;;;9.95;4.78;;;;;;;10.14;100.00;102087.22;5212543;28;20044;-70
2022/06/13 00:13:22;;;;;;;17.02;5.57;;;;;;;10.10;100.00;102088.47;5213533;28;20021;-69
2022/06/13 00:15:53;;;;;;;9.68;4.07;;;;;;;10.09;100.00;102094.78;5213899;28;20055;-69
2022/06/13 00:18:24;;;;;;;13.93;4.97;;;;;;;10.06;100.00;102101.28;5214526;28;20026;-69
2022/06/13 00:20:55;;;;;;;12.73;4.68;;;;;;;10.02;100.00;102089.13;5219349;28;20085;-69
2022/06/13 00:23:25;;;;;;;11.38;4.28;;;;;;;10.00;100.00;102085.75;5215935;28;20467;-69
2022/06/13 00:25:56;;;;;;;11.88;5.50;;;;;;;9.97;100.00;102088.66;5219649;28;20107;-69
2022/06/13 00:28:26;;;;;;;14.02;5.57;;;;;;;9.94;100.00;102085.41;5215435;28;20074;-69
2022/06/13 00:30:57;;;;;;;12.93;5.80;;;;;;;9.90;100.00;102078.63;5220570;28;20112;-70
2022/06/13 00:33:27;;;;;;;17.60;6.25;;;;;;;9.88;100.00;102072.53;5219350;28;20210;-69
2022/06/13 00:35:58;;;;;;;15.70;5.40;;;;;;;9.86;100.00;102075.34;5213707;28;20462;-70
2022/06/13 00:38:28;;;;;;;15.90;5.25;;;;;;;9.84;100.00;102069.28;5215412;28;20201;-70
2022/06/13 00:40:59;;;;;;;16.17;5.30;;;;;;;9.83;100.00;102079.13;5209158;28;20028;-69
2022/06/13 00:43:29;;;;;;;14.90;5.28;;;;;;;9.83;100.00;102071.09;5210300;28;20108;-70
2022/06/13 00:46:00;;;;;;;17.98;5.55;;;;;;;9.85;100.00;102068.28;5207823;28;20117;-69
2022/06/13 00:48:32;;;;;;;14.30;5.50;;;;;;;9.88;100.00;102080.56;5209919;28;20036;-69
2022/06/13 00:51:03;;;;;;;10.57;4.75;;;;;;;9.95;100.00;102081.75;5206821;28;20026;-70
2022/06/13 00:53:35;;;;;;;10.70;5.07;;;;;;;10.06;100.00;102073.63;5224664;28;20036;-70
2022/06/13 00:56:11;;;;;;;10.60;5.00;;;;;;;10.17;100.00;102083.41;5222064;28;20100;-70
2022/06/13 00:58:47;;;;;;;15.23;5.35;;;;;;;10.29;100.00;102093.09;5206811;28;20067;-70
2022/06/13 01:01:20;;;;;;;15.93;5.22;;;;;;;10.37;100.00;102087.91;5206860;28;20060;-70
2022/06/13 01:03:51;;;;;;;9.98;5.32;;;;;;;10.42;100.00;102084.84;5208352;28;20033;-70
2022/06/13 01:06:33;;;;;;;14.13;5.28;;;;;;;10.49;100.00;102091.34;5209505;28;20033;-70
2022/06/13 01:09:08;;;;;;;7.68;4.47;;;;;;;10.52;100.00;102093.78;5209438;28;20025;-71
2022/06/13 01:11:45;;;;;;;12.35;5.00;;;;;;;10.52;100.00;102086.56;5208042;28;20022;-69
2022/06/13 01:14:55;;;;;;;12.10;5.13;;;;;;;10.52;100.00;102091.09;5209682;28;20025;-69
2022/06/13 01:18:02;;;;;;;13.90;4.85;;;;;;;10.54;100.00;102086.41;5212548;28;20037;-69
2022/06/13 01:20:52;;;;;;;10.43;4.95;;;;;;;10.57;100.00;102084.31;5222760;28;20021;-69
2022/06/13 01:23:33;;;;;;;16.08;5.88;;;;;;;10.57;100.00;102075.44;5219277;28;20044;-70
2022/06/13 01:26:31;;;;;;;8.73;4.90;;;;;;;10.52;100.00;102081.19;5217783;28;20044;-69
2022/06/13 01:29:38;;;;;;;12.90;4.97;;;;;;;10.44;100.00;102077.50;5216119;28;20032;-69
2022/06/13 01:32:16;;;;;;;9.68;4.53;;;;;;;10.42;100.00;102083.00;5221701;28;20044;-69
2022/06/13 01:35:04;;;;;;;10.55;5.25;;;;;;;10.45;100.00;102081.91;5212614;28;20037;-70
2022/06/13 01:37:47;;;;;;;13.15;4.85;;;;;;;10.49;100.00;102080.63;5216951;28;20064;-69
2022/06/13 01:40:38;;;;;;;11.05;3.90;;;;;;;10.50;100.00;102083.19;5216887;28;20339;-69
2022/06/13 01:43:30;;;;;;;9.60;4.38;;;;;;;10.52;100.00;102075.84;5205275;28;20494;-70
2022/06/13 01:46:10;;;;;;;18.83;5.07;;;;;;;10.55;100.00;102074.72;5211200;28;20029;-70
2022/06/13 01:49:12;;;;;;;12.38;5.05;;;;;;;10.60;100.00;102065.28;5210793;28;20087;-69
2022/06/13 01:52:15;;;;;;;14.27;4.82;;;;;;;10.66;100.00;102073.78;5217378;28;20497;-69
2022/06/13 01:54:58;;;;;;;10.55;4.55;;;;;;;10.75;100.00;102073.78;5205375;28;20034;-70
2022/06/13 01:57:38;;;;;;;8.68;4.40;;;;;;;10.83;100.00;102082.00;5205209;28;20079;-69
2022/06/13 02:00:13;;;;;;;13.10;5.18;;;;;;;10.94;100.00;102078.34;5204825;28;20363;-70
2022/06/13 02:03:16;;;;;;;10.20;4.75;;;;;;;11.00;100.00;102077.81;5204702;28;20112;-70
2022/06/13 02:05:54;;;;;;;13.15;5.20;;;;;;;11.00;100.00;102075.13;5212760;28;20047;-69
2022/06/13 02:08:47;;;;;;;11.82;4.63;;;;;;;11.01;100.00;102071.44;5224808;28;20040;-70
2022/06/13 02:11:25;;;;;;;11.63;5.43;;;;;;;11.06;100.00;102069.19;5224385;28;20056;-71
2022/06/13 02:14:17;;;;;;;14.90;4.70;;;;;;;11.09;100.00;102071.59;5204380;28;20429;-70
2022/06/13 02:17:06;;;;;;;19.60;6.65;;;;;;;11.13;100.00;102073.00;5213241;28;20131;-70
2022/06/13 02:20:08;;;;;;;16.48;5.00;;;;;;;11.17;100.00;102065.50;5220399;28;20399;-69
2022/06/13 02:22:42;;;;;;;19.35;6.32;;;;;;;11.18;100.00;102079.78;5213131;28;20112;-69
2022/06/13 02:25:35;;;;;;;16.88;4.82;;;;;;;11.19;100.00;102068.06;5215943;28;20036;-70
2022/06/13 02:28:13;;;;;;;18.30;5.60;;;;;;;11.21;100.00;102068.78;5214999;28;20022;-70
2022/06/13 02:30:51;;;;;;;22.52;6.53;;;;;;;11.22;100.00;102071.31;5218957;28;20021;-69
2022/06/13 02:33:27;;;;;;;20.63;5.25;;;;;;;11.22;100.00;102070.47;5215898;28;20179;-69
2022/06/13 02:36:04;;;;;;;15.25;5.80;;;;;;;11.23;100.00;102064.09;5212038;28;20083;-69
2022/06/13 02:38:51;;;;;;;20.35;5.63;;;;;;;11.20;100.00;102065.25;5209718;28;20028;-69
2022/06/13 02:41:25;;;;;;;17.33;5.35;;;;;;;11.23;100.00;102066.78;5212855;28;20060;-70
2022/06/13 02:44:03;;;;;;;13.82;5.55;;;;;;;11.24;100.00;102071.16;5208722;28;20048;-70
2022/06/13 02:46:53;;;;;;;26.77;6.13;;;;;;;11.23;100.00;102069.47;5211881;28;20032;-70
2022/06/13 02:49:42;;;;;;;16.63;5.07;;;;;;;11.24;100.00;102074.69;5210505;28;20483;-70
2022/06/13 02:52:48;;;;;;;21.35;5.57;;;;;;;11.27;100.00;102065.53;5208833;28;20033;-69
2022/06/13 02:55:19;;;;;;;18.38;5.22;;;;;;;11.28;100.00;102073.44;5208399;28;20022;-68
2022/06/13 02:58:08;;;;;;;21.13;5.53;;;;;;;11.29;100.00;102069.75;5213118;28;20486;-69
2022/06/13 03:01:12;;;;;;;18.38;5.82;;;;;;;11.30;100.00;102073.31;5212250;28;20021;-68
2022/06/13 03:04:05;;;;;;;19.55;5.18;;;;;;;11.26;100.00;102075.41;5209385;28;20111;-69
2022/06/13 03:07:02;;;;;;;19.80;5.70;;;;;;;11.26;100.00;102075.41;5211925;28;20553;-69
2022/06/13 03:09:40;;;;;;;17.77;5.70;;;;;;;11.26;100.00;102071.88;5211304;28;20026;-69
2022/06/13 03:12:19;;;;;;;17.70;5.43;;;;;;;11.26;100.00;102074.56;5211684;28;20068;-70
2022/06/13 03:15:22;;;;;;;21.27;5.70;;;;;;;11.31;100.00;102072.31;5217417;28;20033;-68
2022/06/13 03:18:14;;;;;;;25.48;6.65;;;;;;;11.32;100.00;102077.53;5207706;28;20394;-69
2022/06/13 03:20:52;;;;;;;17.55;5.75;;;;;;;11.34;100.00;102074.69;5210756;28;20486;-68
2022/06/13 03:23:35;;;;;;;23.42;6.00;;;;;;;11.36;100.00;102072.75;5210500;28;20021;-68
2022/06/13 03:26:13;;;;;;;20.00;5.47;;;;;;;11.37;100.00;102071.75;5215224;28;20048;-69
2022/06/13 03:29:05;;;;;;;15.50;6.03;;;;;;;11.36;100.00;102076.28;5214970;28;20112;-69
2022/06/13 03:31:43;;;;;;;16.52;6.18;;;;;;;11.33;100.00;102067.63;5219063;28;20077;-68
2022/06/13 03:34:20;;;;;;;21.63;5.47;;;;;;;11.29;100.00;102082.34;5213460;28;20021;-69
2022/06/13 03:36:57;;;;;;;26.63;5.68;;;;;;;11.30;100.00;102082.22;5214244;28;20043;-70
2022/06/13 03:39:34;;;;;;;15.13;5.70;;;;;;;11.33;100.00;102084.59;5215862;28;20147;-70
2022/06/13 03:42:23;;;;;;;15.80;6.22;;;;;;;11.35;100.00;102085.31;5218243;28;20477;-68
2022/06/13 03:45:16;;;;;;;21.05;6.32;;;;;;;11.34;100.00;102080.91;5220906;28;20057;-69
2022/06/13 03:48:08;;;;;;;18.77;5.75;;;;;;;11.37;100.00;102082.50;5223912;28;20441;-69
2022/06/13 03:51:00;;;;;;;19.83;6.32;;;;;;;11.41;100.00;102094.66;5222341;28;20017;-69
2022/06/13 03:53:47;;;;;;;20.95;5.85;;;;;;;11.43;100.00;102086.44;5207621;28;20027;-69
2022/06/13 03:56:41;;;;;;;16.15;6.10;;;;;;;11.46;100.00;102095.09;5209812;28;20107;-69
2022/06/13 03:59:45;;;;;;;14.23;6.03;;;;;;;11.45;100.00;102093.38;5212019;28;20022;-69
2022/06/13 04:02:20;;;;;;;21.80;6.38;;;;;;;11.41;100.00;102092.81;5217470;28;20030;-70
2022/06/13 04:04:53;;;;;;;17.55;6.05;;;;;;;11.37;100.00;102088.72;5209869;28;20397;-69
2022/06/13 04:07:27;;;;;;;25.83;7.18;;;;;;;11.39;100.00;102107.38;5214195;28;20020;-70
2022/06/13 04:10:02;;;;;;;20.65;6.60;;;;;;;11.43;100.00;102103.41;5220436;28;20490;-68
2022/06/13 04:12:56;;;;;;;28.05;6.47;;;;;;;11.57;100.00;102111.06;5210061;28;20019;-69
2022/06/13 04:16:01;;;;;;;27.67;6.65;;;;;;;11.68;100.00;102112.75;5210679;28;20064;-70
2022/06/13 04:18:52;;;;;;;26.15;6.90;;;;;;;11.77;100.00;102111.88;5225296;28;20033;-68
2022/06/13 04:22:00;;;;;;;18.50;6.18;;;;;;;11.79;100.00;102111.75;5210363;28;20037;-68
2022/06/13 04:24:51;;;;;;;14.77;5.88;;;;;;;11.81;100.00;102107.09;5208232;28;20021;-68
2022/06/13 04:27:23;;;;;;;25.33;6.35;;;;;;;11.85;100.00;102111.22;5206717;28;20026;-68
2022/06/13 04:30:01;;;;;;;16.55;6.00;;;;;;;11.83;100.00;102114.03;5214044;28;20043;-68
2022/06/13 04:32:39;;;;;;;31.55;6.55;;;;;;;11.90;100.00;102115.16;5223331;28;20054;-68
2022/06/13 04:35:12;;;;;;;24.27;6.30;;;;;;;11.96;100.00;102118.28;5206911;28;20018;-69
2022/06/13 04:37:43;;;;;;;24.25;6.25;;;;;;;12.04;100.00;102124.59;5224313;28;20475;-69
2022/06/13 04:40:27;;;;;;;25.70;6.63;;;;;;;12.15;100.00;102127.16;5215812;28;20076;-68
2022/06/13 04:42:59;;;;;;;22.70;6.38;;;;;;;12.28;100.00;102126.81;5207792;28;20425;-68
2022/06/13 04:45:45;;;;;;;21.17;7.03;;;;;;;12.40;100.00;102131.03;5209283;28;20035;-68
2022/06/13 04:48:16;;;;;;;22.42;6.90;;;;;;;12.53;100.00;102136.06;5207846;28;20065;-68
2022/06/13 04:50:52;;;;;;;20.38;6.20;;;;;;;12.66;100.00;102125.84;5218986;28;20021;-68
2022/06/13 04:53:26;;;;;;;19.42;6.43;;;;;;;12.84;100.00;102135.78;5213613;28;20076;-68
2022/06/13 04:55:59;;;;;;;26.85;6.57;;;;;;;12.88;100.00;102137.19;5218136;28;20115;-68
2022/06/13 04:58:47;;;;;;;19.38;5.85;;;;;;;12.90;100.00;102145.97;5213226;28;20086;-68
2022/06/13 05:01:32;;;;;;;20.05;6.35;;;;;;;12.94;100.00;102144.66;5218909;28;20457;-68
2022/06/13 05:04:06;;;;;;;24.45;6.70;;;;;;;12.97;100.00;102136.31;5216501;28;20506;-69
2022/06/13 05:06:42;;;;;;;21.90;6.53;;;;;;;12.97;100.00;102144.38;5215672;28;20024;-69
2022/06/13 05:09:18;;;;;;;23.75;6.75;;;;;;;12.99;100.00;102147.75;5215458;28;20431;-68
2022/06/13 05:11:55;;;;;;;18.70;7.00;;;;;;;13.02;100.00;102150.16;5219287;28;20047;-69
2022/06/13 05:15:01;;;;;;;20.17;6.13;;;;;;;13.06;100.00;102154.25;5212150;28;20491;-68
2022/06/13 05:17:50;;;;;;;19.05;6.38;;;;;;;13.16;100.00;102151.50;5205530;28;20021;-68
2022/06/13 05:20:27;;;;;;;24.02;7.00;;;;;;;13.23;100.00;102152.63;5215674;28;20395;-68
2022/06/13 05:23:34;;;;;;;28.92;8.25;;;;;;;13.32;100.00;102158.94;5204996;28;20033;-68
2022/06/13 05:26:06;;;;;;;25.35;6.90;;;;;;;13.46;100.00;102150.34;5213673;28;20128;-68
2022/06/13 05:28:37;;;;;;;22.50;8.35;;;;;;;13.61;100.00;102159.59;5222841;28;20026;-68
2022/06/13 05:31:18;;;;;;;28.83;7.82;;;;;;;13.83;100.00;102160.94;5223920;28;20033;-68
2022/06/13 05:33:50;;;;;;;27.63;7.65;;;;;;;13.96;100.00;102158.72;5219126;28;20483;-68
2022/06/13 05:36:24;;;;;;;22.85;7.30;;;;;;;14.23;100.00;102170.38;5206782;28;20028;-68
2022/06/13 05:38:58;;;;;;;28.70;8.20;;;;;;;14.42;100.00;102169.31;5224139;28;20432;-68
2022/06/13 05:41:28;;;;;;;28.40;7.88;;;;;;;14.66;100.00;102176.72;5208218;28;20080;-69
2022/06/13 05:43:59;;;;;;;28.73;7.85;;;;;;;14.71;100.00;102177.97;5224034;28;20041;-68
2022/06/13 05:46:33;;;;;;;23.27;8.00;;;;;;;14.90;100.00;102181.41;5211203;28;20076;-69
2022/06/13 05:49:04;;;;;;;17.27;7.35;;;;;;;14.95;100.00;102181.75;5208144;28;20052;-68
2022/06/13 05:51:35;;;;;;;29.98;8.45;;;;;;;15.12;100.00;102180.00;5211151;28;20028;-68
2022/06/13 05:54:05;;;;;;;22.88;7.78;;;;;;;15.18;100.00;102180.16;5209130;28;20371;-69
2022/06/13 05:56:37;;;;;;;29.10;8.02;;;;;;;15.40;100.00;102180.56;5218068;28;20105;-69
2022/06/13 05:59:08;;;;;;;19.80;6.88;;;;;;;15.96;100.00;102178.94;5208867;28;20028;-68
2022/06/13 06:01:38;;;;;;;22.50;7.43;;;;;;;16.12;100.00;102184.38;5209057;28;20447;-68
2022/06/13 06:04:09;;;;;;;26.80;8.73;;;;;;;16.30;100.00;102185.03;5211032;28;20025;-69
2022/06/13 06:06:39;;;;;;;22.38;7.45;;;;;;;16.29;100.00;102183.34;5211719;28;20030;-68
2022/06/13 06:09:12;;;;;;;34.53;7.97;;;;;;;16.31;100.00;102188.56;5212171;28;20478;-69
2022/06/13 06:11:43;;;;;;;27.65;6.63;;;;;;;16.37;100.00;102197.91;5210058;28;20033;-68
2022/06/13 06:14:13;;;;;;;24.25;6.88;;;;;;;16.53;100.00;102200.56;5213544;28;20046;-69
2022/06/13 06:16:44;;;;;;;20.00;6.57;;;;;;;16.76;100.00;102200.69;5209100;28;20028;-68
2022/06/13 06:19:14;;;;;;;20.88;6.22;;;;;;;17.03;100.00;102204.84;5204056;28;20120;-69
2022/06/13 06:21:45;;;;;;;17.95;6.68;;;;;;;17.30;100.00;102198.09;5211235;28;20040;-69
2022/06/13 06:24:15;;;;;;;25.80;5.82;;;;;;;17.39;100.00;102197.03;5207376;28;20034;-69
2022/06/13 06:26:46;;;;;;;34.78;6.78;;;;;;;17.32;100.00;102205.06;5205876;28;20025;-69
2022/06/13 06:29:16;;;;;;;25.30;7.43;;;;;;;17.50;100.00;102212.91;5218580;28;20112;-69
2022/06/13 06:31:47;;;;;;;22.13;6.20;;;;;;;17.51;100.00;102217.28;5221909;28;20329;-69
2022/06/13 06:34:17;;;;;;;15.45;5.78;;;;;;;17.50;100.00;102215.63;5210872;28;20082;-69
2022/06/13 06:36:48;;;;;;;20.17;5.38;;;;;;;17.64;100.00;102211.31;5223595;28;20021;-69
2022/06/13 06:39:18;;;;;;;21.98;5.25;;;;;;;17.62;100.00;102213.34;5218147;28;20037;-69
2022/06/13 06:41:49;;;;;;;17.05;4.63;;;;;;;17.72;100.00;102210.38;5205262;28;20029;-69
2022/06/13 06:44:19;;;;;;;19.42;5.00;;;;;;;18.15;100.00;102218.91;5211113;28;20041;-69
2022/06/13 06:46:50;;;;;;;13.07;4.35;;;;;;;18.15;100.00;102214.31;5211281;28;20025;-69
2022/06/13 06:49:20;;;;;;;14.88;3.63;;;;;;;18.19;100.00;102221.09;5213068;28;20018;-69
2022/06/13 06:51:51;;;;;;;12.57;3.20;;;;;;;18.27;100.00;102229.19;5210558;28;20104;-69
2022/06/13 07:00:02;;;;;;;11.18;2.75;;;;;;;18.91;100.00;102236.00;5203810;28;20021;-69
2022/06/13 07:02:33;;;;;;;11.43;2.78;;;;;;;19.17;100.00;102236.38;5204352;28;20079;-69
2022/06/13 07:05:06;;;;;;;11.80;2.88;;;;;;;19.41;100.00;102240.66;5213091;28;20033;-69
2022/06/13 07:07:37;;;;;;;15.13;2.72;;;;;;;19.55;100.00;102244.38;5216199;28;20075;-69
2022/06/13 07:10:10;;;;;;;11.65;2.65;;;;;;;19.38;100.00;102241.06;5209711;28;20025;-69
2022/06/13 07:12:41;;;;;;;9.93;2.95;;;;;;;19.31;100.00;102235.50;5203613;28;20585;-69
2022/06/13 07:15:14;;;;;;;12.43;2.97;;;;;;;20.10;100.00;102238.28;5206492;28;20021;-69
2022/06/13 07:17:45;;;;;;;58.17;5.95;;;;;;;21.42;100.00;102232.03;5203559;28;20112;-69
2022/06/13 07:20:15;;;;;;;13.77;2.65;;;;;;;22.11;98.28;102241.88;5205774;28;20559;-69
2022/06/13 07:22:48;;;;;;;9.13;2.50;;;;;;;21.54;93.64;102240.50;5222243;28;20055;-69
2022/06/13 07:25:23;;;;;;;14.52;2.63;;;;;;;20.77;100.00;102245.13;5205622;28;20030;-70
2022/06/13 07:27:54;;;;;;;10.27;3.58;;;;;;;19.84;100.00;102249.75;5214851;28;20083;-69
2022/06/13 07:30:28;;;;;;;13.88;3.03;;;;;;;19.08;100.00;102253.84;5215580;28;20017;-69
2022/06/13 07:32:59;;;;;;;27.73;6.25;;;;;;;18.76;100.00;102247.72;5216511;28;20475;-69
2022/06/13 07:35:30;;;;;;;13.45;3.00;;;;;;;18.51;100.00;102248.97;5203355;28;20029;-69
2022/06/13 07:40:54;;;;;;;12.68;3.13;;;;;;;17.87;100.00;102260.19;5210077;28;20037;-69
2022/06/13 07:43:44;;;;;;;13.38;3.17;;;;;;;17.75;100.00;102262.47;5206417;28;20033;-69
2022/06/13 07:46:14;;;;;;;11.00;2.90;;;;;;;18.51;100.00;102257.97;5205924;28;20029;-69
2022/06/13 07:48:48;;;;;;;10.48;3.42;;;;;;;19.98;100.00;102264.38;5209264;28;20483;-69
2022/06/13 07:51:19;;;;;;;12.10;3.13;;;;;;;20.10;100.00;102260.06;5209843;28;20036;-69
2022/06/13 07:53:50;;;;;;;10.23;2.90;;;;;;;19.97;100.00;102265.38;5215459;28;20549;-69
2022/06/13 07:56:24;;;;;;;11.25;2.72;;;;;;;20.49;100.00;102269.69;5205071;28;20021;-69
2022/06/13 07:58:56;;;;;;;10.23;3.42;;;;;;;20.17;100.00;102268.31;5215916;28;20356;-69
2022/06/13 08:01:28;;;;;;;14.30;2.50;;;;;;;19.74;100.00;102284.63;5211006;28;20030;-69
2022/06/13 08:03:59;;;;;;;18.33;3.13;;;;;;;19.46;100.00;102289.91;5216600;28;20070;-69
2022/06/13 08:06:29;;;;;;;9.07;2.75;;;;;;;19.69;100.00;102280.81;5208986;28;20104;-69
2022/06/13 08:09:00;;;;;;;9.23;2.60;;;;;;;20.68;100.00;102287.22;5211453;28;20475;-69
2022/06/13 08:11:34;;;;;;;11.30;2.55;;;;;;;21.76;93.81;102287.59;5213947;28;20071;-69
2022/06/13 08:14:06;;;;;;;11.00;2.53;;;;;;;21.54;94.56;102289.66;5216658;28;20106;-69
2022/06/13 08:16:37;;;;;;;10.25;2.97;;;;;;;21.04;98.40;102289.78;5219760;28;20044;-70
2022/06/13 08:19:07;;;;;;;8.75;2.85;;;;;;;20.63;100.00;102286.97;5214038;28;20017;-69
2022/06/13 08:21:38;;;;;;;12.45;3.00;;;;;;;20.14;97.40;102291.34;5210192;28;20025;-69
2022/06/13 08:24:09;;;;;;;14.70;3.20;;;;;;;19.64;100.00;102295.00;5206517;28;20479;-69
2022/06/13 08:26:39;;;;;;;20.85;3.28;;;;;;;19.96;100.00;102298.28;5211120;28;20048;-70
2022/06/13 08:29:10;;;;;;;10.25;2.75;;;;;;;20.53;98.17;102303.66;5211900;28;20156;-69
2022/06/13 08:31:41;;;;;;;10.90;2.58;;;;;;;20.29;97.93;102302.19;5211103;28;20037;-69
2022/06/13 08:34:11;;;;;;;7.10;2.67;;;;;;;19.93;100.00;102307.69;5209478;28;20491;-69
2022/06/13 08:36:42;;;;;;;9.45;2.70;;;;;;;19.60;100.00;102308.13;5223814;28;20060;-69
2022/06/13 08:39:13;;;;;;;10.45;2.17;;;;;;;19.66;100.00;102306.53;5219967;28;20029;-69
2022/06/13 08:42:01;;;;;;;11.70;2.67;;;;;;;19.64;100.00;102309.44;5209225;28;20025;-70
2022/06/13 08:44:55;;;;;;;12.50;2.67;;;;;;;19.75;100.00;102315.44;5222191;28;20066;-69
2022/06/13 08:47:36;;;;;;;11.30;2.40;;;;;;;19.69;100.00;102313.47;5221339;28;20028;-69
2022/06/13 08:50:42;;;;;;;14.60;2.33;;;;;;;19.56;100.00;102319.56;5211935;28;20105;-69
2022/06/13 08:53:21;;;;;;;8.68;2.33;;;;;;;19.60;100.00;102323.63;5219215;28;20083;-69
2022/06/13 08:56:09;;;;;;;10.77;2.53;;;;;;;19.55;100.00;102331.47;5213222;28;20028;-69
2022/06/13 08:58:53;;;;;;;8.55;2.60;;;;;;;19.67;97.62;102332.69;5220117;28;20029;-69
2022/06/13 09:01:31;;;;;;;10.75;2.00;;;;;;;20.88;95.12;102328.25;5218688;28;20029;-69
2022/06/13 09:04:25;;;;;;;14.65;2.05;;;;;;;21.85;91.20;102330.09;5216125;28;20034;-69
2022/06/13 09:07:17;;;;;;;9.55;2.58;;;;;;;21.96;80.35;102337.69;5213271;28;20025;-70
2022/06/13 09:10:09;;;;;;;7.60;1.83;;;;;;;21.35;85.24;102340.38;5210830;28;20458;-70
2022/06/13 09:12:45;;;;;;;10.70;2.08;;;;;;;21.18;84.86;102337.06;5218139;28;20044;-70
2022/06/13 09:15:21;;;;;;;6.05;1.70;;;;;;;20.59;87.22;102334.78;5220277;28;20071;-69
2022/06/13 09:17:55;;;;;;;;;;;;;;;20.14;87.88;102345.84;5213187;28;20025;-69
2022/06/13 09:20:29;;;;;;;8.82;2.13;;;;;;;20.03;90.98;102346.34;5214702;28;20359;-69
2022/06/13 09:23:08;;;;;;;5.05;1.45;;;;;;;20.01;91.78;102355.72;5208834;28;20461;-70
2022/06/13 09:26:02;;;;;;;4.22;1.52;;;;;;;19.92;92.34;102358.56;5209678;28;20049;-69
2022/06/13 09:28:51;;;;;;;9.00;2.20;;;;;;;20.37;89.34;102350.25;5221131;28;20029;-69
2022/06/13 09:31:42;;;;;;;7.13;1.60;;;;;;;20.17;91.66;102352.75;5208176;28;20025;-69
2022/06/13 09:34:39;;;;;;;8.32;1.90;;;;;;;20.87;89.25;102348.41;5221552;28;20104;-69
2022/06/13 09:37:48;;;;;;;21.48;2.85;;;;;;;21.68;83.77;102346.81;5221791;28;20099;-69
2022/06/13 09:40:27;;;;;;;8.00;1.58;;;;;;;22.68;80.97;102345.16;5214508;28;20171;-70
2022/06/13 09:43:30;;;;;;;8.20;1.92;;;;;;;23.52;74.95;102355.38;5215933;28;20078;-70
2022/06/13 09:46:09;;;;;;;7.43;1.80;;;;;;;24.33;66.29;102361.31;5223309;28;20371;-70
2022/06/13 09:48:51;;;;;;;7.00;1.50;;;;;;;23.35;61.79;102367.88;5221042;28;20032;-70
2022/06/13 09:51:32;;;;;;;6.22;1.55;;;;;;;22.17;66.99;102359.41;5212392;28;20061;-70
2022/06/13 09:54:27;;;;;;;7.85;1.75;;;;;;;21.49;72.41;102363.09;5224445;28;20021;-70
2022/06/13 09:57:25;;;;;;;4.07;1.75;;;;;;;20.81;79.71;102360.13;5222644;28;20033;-69
2022/06/13 10:00:16;;;;;;;4.20;1.33;;;;;;;20.68;82.81;102366.28;5215940;28;20028;-70
2022/06/13 10:03:07;;;;;;;5.05;1.65;;;;;;;20.49;78.05;102358.78;5206881;28;20088;-70
2022/06/13 10:05:41;;;;;;;4.68;1.80;;;;;;;20.41;85.76;102366.00;5205858;28;20025;-70
2022/06/13 10:08:48;;;;;;;7.43;1.85;;;;;;;21.04;96.01;102357.16;5206504;28;20022;-69
2022/06/13 10:11:43;;;;;;;5.60;1.90;;;;;;;22.00;80.34;102363.56;5217856;28;20036;-70
2022/06/13 10:14:30;;;;;;;8.47;1.93;;;;;;;22.30;79.43;102358.63;5206449;28;20029;-70
2022/06/13 10:17:17;;;;;;;8.30;1.90;;;;;;;22.16;88.35;102362.38;5205490;28;20362;-70
2022/06/13 10:20:13;;;;;;;10.43;2.28;;;;;;;22.32;79.01;102364.69;5205543;28;20030;-70
2022/06/13 10:22:57;;;;;;;5.43;1.65;;;;;;;22.32;77.88;102363.88;5209138;28;20114;-70
2022/06/13 10:25:58;;;;;;;4.70;1.50;;;;;;;22.59;76.59;102359.25;5208882;28;20036;-70
2022/06/13 10:28:43;;;;;;;5.18;1.40;;;;;;;22.85;77.14;102362.00;5208992;28;20029;-70
2022/06/13 10:31:40;;;;;;;2.90;1.30;;;;;;;23.30;70.33;102356.72;5217711;28;20040;-70
2022/06/13 10:34:24;;;;;;;6.03;1.42;;;;;;;23.07;65.55;102368.13;5209492;28;20486;-70
2022/06/13 10:37:15;;;;;;;8.10;1.58;;;;;;;22.75;66.46;102358.88;5208303;28;20037;-70
2022/06/13 10:39:48;;;;;;;5.43;1.58;;;;;;;22.05;69.92;102363.78;5214227;28;20025;-70
2022/06/13 10:42:22;;;;;;;5.32;1.40;;;;;;;22.17;72.20;102364.03;5218094;28;20032;-70
2022/06/13 10:44:54;;;;;;;5.55;1.52;;;;;;;22.25;70.60;102368.50;5213711;28;20071;-70
2022/06/13 10:47:42;;;;;;;8.90;1.80;;;;;;;21.90;70.01;102365.81;5207231;28;20518;-70
2022/06/13 10:50:21;;;;;;;5.88;1.48;;;;;;;21.62;72.48;102379.56;5218896;28;20123;-69
2022/06/13 10:52:58;;;;;;;6.97;1.55;;;;;;;21.13;78.13;102367.69;5223497;28;20025;-69
2022/06/13 10:55:36;;;;;;;7.10;1.15;;;;;;;20.94;77.48;102382.06;5221393;28;20067;-69
2022/06/13 10:58:16;;;;;;;8.02;1.45;;;;;;;20.94;85.38;102377.44;5210016;28;20108;-70
2022/06/13 11:01:19;;;;;;;6.18;1.10;;;;;;;21.38;82.64;102370.81;5203981;28;20036;-70
2022/06/13 11:04:27;;;;;;;8.23;1.50;;;;;;;21.32;82.25;102376.25;5222403;28;20039;-70
2022/06/13 11:07:02;;;;;;;8.85;1.98;;;;;;;21.46;83.52;102367.09;5221925;28;20025;-69
2022/06/13 11:09:57;;;;;;;6.90;1.63;;;;;;;21.23;79.06;102369.22;5222182;28;20049;-70
2022/06/13 11:12:32;;;;;;;6.15;1.25;;;;;;;21.20;81.68;102365.88;5222158;28;20029;-70
2022/06/13 11:24:01;;;;;;;3.78;1.27;;;;;;;21.83;70.10;102371.25;5214037;28;20398;-70
2022/06/13 11:29:28;;;;;;;6.32;1.60;;;;;;;22.01;70.62;102367.97;5216518;28;20014;-70
2022/06/13 11:32:02;;;;;;;4.97;1.35;;;;;;;21.67;73.23;102375.19;5219297;28;20029;-70
2022/06/13 11:34:38;;;;;;;5.50;1.50;;;;;;;21.05;73.97;102373.31;5218342;28;20029;-70
2022/06/13 11:37:25;;;;;;;6.47;1.30;;;;;;;20.66;77.00;102387.47;5214785;28;20435;-69
2022/06/13 11:39:59;;;;;;;6.03;1.10;;;;;;;20.25;76.35;102392.69;5213523;28;20405;-70
2022/06/13 11:42:31;;;;;;;4.38;1.40;;;;;;;20.43;79.39;102393.94;5218034;28;20040;-69
2022/06/13 11:45:07;;;;;;;3.40;1.13;;;;;;;20.82;80.67;102380.88;5213326;28;20021;-70
2022/06/13 11:47:42;;;;;;;4.22;1.58;;;;;;;21.02;75.07;102373.69;5212437;28;20399;-70
2022/06/13 11:50:22;;;;;;;2.67;1.13;;;;;;;21.30;75.14;102386.50;5222321;28;20150;-70
2022/06/13 11:56:06;;;;;;;3.20;1.27;;;;;;;21.29;67.41;102377.47;5227010;28;20025;-69
2022/06/13 11:58:41;;;;;;;6.95;1.33;;;;;;;21.63;65.26;102378.50;5207440;28;20087;-70
2022/06/13 12:01:18;;;;;;;10.25;1.27;;;;;;;21.45;69.80;102381.78;5208217;28;20026;-69
2022/06/13 12:04:01;;;;;;;7.72;1.58;;;;;;;20.72;72.38;102383.94;5208077;28;20418;-69
2022/06/13 12:06:42;;;;;;;5.75;1.23;;;;;;;20.50;80.07;102385.00;5207853;28;20033;-69
2022/06/13 12:09:31;;;;;;;4.28;1.10;;;;;;;20.73;76.78;102379.34;5207342;28;20021;-69
2022/06/13 12:12:05;;;;;;;1.95;1.05;;;;;;;20.95;73.24;102384.56;5208361;28;20351;-69
2022/06/13 12:14:40;;;;;;;7.72;1.05;;;;;;;20.99;72.30;102384.19;5207479;28;20030;-70
2022/06/13 12:17:28;;;;;;;2.08;0.95;;;;;;;21.07;73.13;102384.84;5217355;28;20426;-69
2022/06/13 12:20:24;;;;;;;6.07;1.40;;;;;;;21.41;72.65;102383.25;5227029;28;20572;-69
2022/06/13 12:23:01;;;;;;;;;;;;;;;21.78;72.95;102384.69;5218998;28;20032;-69
2022/06/13 12:25:48;;;;;;;5.50;1.00;;;;;;;21.90;73.80;102384.94;5210676;28;19909;-69
2022/06/13 12:28:21;;;;;;;6.43;1.20;;;;;;;22.45;72.12;102386.59;5210484;28;20029;-69
2022/06/13 12:31:16;;;;;;;6.05;1.55;;;;;;;22.24;68.56;102389.53;5209409;28;20022;-70
2022/06/13 12:33:47;;;;;;;6.30;1.57;;;;;;;21.99;68.85;102391.94;5221596;28;20095;-69
2022/06/13 12:36:49;;;;;;;4.50;1.45;;;;;;;21.73;67.78;102389.91;5223708;28;20033;-69